Time;durP1;ratioP1;P1;durP2;ratioP2;P2;SDS_P1;SDS_P2;PMS_P1;PMS_P2;Temp;Humidity;BMP_temperature;BMP_pressure;BME280_temperature;BME280_humidity;BME280_pressure;Samples;Min_cycle;Max_cycle;Signal;HPM_P1;HPM_P2
2023/09/09 00:00:44;;;;;;;29.05;14.02;;;;;;;24.41;100.00;100588.75;20638500;28;20081;-72
2023/09/09 00:11:07;;;;;;;23.77;14.10;;;;;;;24.35;100.00;100556.63;20652742;28;20054;-72
2023/09/09 00:21:32;;;;;;;22.42;13.70;;;;;;;24.35;100.00;100570.97;20667405;28;20074;-73
2023/09/09 00:31:56;;;;;;;26.27;13.90;;;;;;;24.28;100.00;100571.34;20666764;28;20050;-72
2023/09/09 00:42:20;;;;;;;19.00;13.05;;;;;;;24.11;100.00;100581.00;20652629;28;20046;-72
2023/09/09 00:52:44;;;;;;;22.20;14.55;;;;;;;24.02;100.00;100577.84;20651777;28;20050;-72
2023/09/09 01:03:09;;;;;;;19.33;13.75;;;;;;;24.04;100.00;100563.31;20664362;28;20057;-72
2023/09/09 01:13:33;;;;;;;23.95;14.30;;;;;;;23.96;100.00;100557.38;20649939;28;20664;-72
2023/09/09 01:23:57;;;;;;;25.00;15.40;;;;;;;23.86;100.00;100557.84;20661033;28;20043;-72
2023/09/09 01:34:20;;;;;;;21.70;13.27;;;;;;;23.68;100.00;100565.78;20662434;28;20058;-72
2023/09/09 01:44:47;;;;;;;22.75;14.60;;;;;;;23.74;100.00;100561.94;20647684;28;20136;-73
2023/09/09 01:55:10;;;;;;;22.90;14.20;;;;;;;23.57;100.00;100564.44;20660932;28;20064;-73
2023/09/09 02:05:36;;;;;;;27.90;16.13;;;;;;;23.44;100.00;100564.91;20645609;28;20058;-73
2023/09/09 02:16:09;;;;;;;22.65;14.70;;;;;;;23.43;100.00;100568.53;20657857;28;20450;-73
2023/09/09 02:26:37;;;;;;;23.70;15.40;;;;;;;23.40;100.00;100574.06;20643215;28;20116;-72
2023/09/09 02:37:16;;;;;;;21.77;14.88;;;;;;;23.41;100.00;100580.34;20656295;28;20046;-72
2023/09/09 02:47:42;;;;;;;26.20;16.00;;;;;;;23.35;100.00;100575.19;20655524;28;20050;-72
2023/09/09 02:58:06;;;;;;;23.23;15.18;;;;;;;23.26;100.00;100572.84;20641815;28;20083;-73
2023/09/09 03:08:32;;;;;;;23.83;15.98;;;;;;;23.10;100.00;100571.72;20653559;28;20057;-73
2023/09/09 03:18:55;;;;;;;25.42;15.93;;;;;;;23.08;100.00;100570.88;20639702;28;20454;-72
2023/09/09 03:29:19;;;;;;;26.15;17.30;;;;;;;23.02;100.00;100585.47;20638665;28;20052;-72
2023/09/09 03:39:42;;;;;;;26.80;17.77;;;;;;;22.97;100.00;100590.16;20638995;28;20092;-72
2023/09/09 03:50:09;;;;;;;27.05;16.42;;;;;;;22.98;100.00;100600.84;20651547;28;20054;-72
2023/09/09 04:00:32;;;;;;;22.13;16.13;;;;;;;22.94;100.00;100591.16;20636250;28;20046;-72
2023/09/09 04:10:56;;;;;;;24.60;16.25;;;;;;;22.99;100.00;100589.16;20629152;28;20055;-72
2023/09/09 04:21:19;;;;;;;19.83;14.00;;;;;;;23.14;100.00;100590.38;20631624;28;20061;-72
2023/09/09 04:31:46;;;;;;;16.85;11.68;;;;;;;23.30;100.00;100590.66;20647689;28;20042;-72
2023/09/09 04:42:09;;;;;;;19.67;11.95;;;;;;;23.79;100.00;100590.44;20647084;28;20418;-73
2023/09/09 04:52:34;;;;;;;15.95;9.80;;;;;;;24.29;100.00;100597.34;20649450;28;20714;-73
2023/09/09 05:02:57;;;;;;;15.88;9.20;;;;;;;24.60;100.00;100603.19;20646260;28;20050;-73
2023/09/09 05:13:21;;;;;;;15.82;9.73;;;;;;;25.29;100.00;100603.59;20662515;28;20058;-73
2023/09/09 05:23:44;;;;;;;23.85;8.98;;;;;;;26.03;100.00;100608.06;20676105;28;20062;-73
2023/09/09 05:34:08;;;;;;;19.08;9.23;;;;;;;26.75;100.00;100609.72;20647854;28;20417;-73
2023/09/09 05:44:31;;;;;;;17.95;7.18;;;;;;;27.37;100.00;100595.47;20647532;28;20189;-72
2023/09/09 05:54:57;;;;;;;14.93;6.47;;;;;;;28.14;100.00;100595.53;20647056;28;20058;-73
2023/09/09 06:05:20;;;;;;;11.20;6.30;;;;;;;28.75;100.00;100599.97;20645849;28;20054;-73
2023/09/09 06:15:45;;;;;;;13.02;6.35;;;;;;;29.38;100.00;100592.31;20656592;28;20141;-72
2023/09/09 06:26:09;;;;;;;12.70;6.57;;;;;;;30.00;100.00;100593.59;20625303;28;20046;-72
2023/09/09 06:36:34;;;;;;;14.48;6.65;;;;;;;30.46;100.00;100584.97;20647850;28;20137;-73
2023/09/09 06:46:57;;;;;;;17.35;6.85;;;;;;;30.68;100.00;100595.28;20668603;28;20918;-72
2023/09/09 06:57:21;;;;;;;13.25;6.82;;;;;;;31.19;100.00;100604.34;20685117;28;20080;-72
2023/09/09 07:07:44;;;;;;;10.70;5.80;;;;;;;31.52;95.37;100612.78;20719916;28;20086;-74
2023/09/09 07:18:09;;;;;;;12.20;5.90;;;;;;;31.95;86.79;100618.69;20733803;28;20140;-72
2023/09/09 07:28:32;;;;;;;13.00;6.35;;;;;;;32.05;85.02;100624.31;20702483;28;20345;-73
2023/09/09 07:38:57;;;;;;;11.30;5.22;;;;;;;32.14;83.73;100637.31;20652880;28;20165;-73
2023/09/09 07:49:21;;;;;;;15.75;5.38;;;;;;;32.65;81.20;100653.41;20651871;28;20061;-73
2023/09/09 07:59:47;;;;;;;11.20;5.43;;;;;;;33.15;79.80;100666.69;20644339;28;20065;-73
2023/09/09 08:10:12;;;;;;;11.27;5.28;;;;;;;33.69;76.27;100666.00;20647840;28;20539;-73
2023/09/09 08:20:36;;;;;;;12.10;4.65;;;;;;;33.90;73.47;100664.25;20650830;28;20046;-73
2023/09/09 08:31:00;;;;;;;10.70;4.35;;;;;;;33.85;69.14;100669.25;20637900;28;20073;-73
2023/09/09 08:41:32;;;;;;;12.18;4.57;;;;;;;33.80;64.02;100670.63;20639720;28;20050;-73
2023/09/09 08:51:59;;;;;;;10.05;4.25;;;;;;;33.47;66.20;100668.75;20653133;28;20049;-73
2023/09/09 09:02:24;;;;;;;13.63;4.63;;;;;;;34.08;66.63;100675.53;20669960;28;20057;-73
2023/09/09 09:12:46;;;;;;;;;;;;;;;34.48;65.11;100678.53;20697911;28;20628;-73
2023/09/09 09:23:14;;;;;;;14.30;4.50;;;;;;;34.98;63.06;100671.44;20647005;28;19929;-73
2023/09/09 09:33:36;;;;;;;14.85;4.65;;;;;;;34.58;60.95;100682.25;20659716;28;20090;-74
2023/09/09 09:44:01;;;;;;;16.52;4.82;;;;;;;33.91;65.20;100673.34;20645422;28;20506;-73
2023/09/09 09:54:24;;;;;;;11.83;5.03;;;;;;;34.13;63.29;100676.03;20659325;28;20050;-73
2023/09/09 10:04:52;;;;;;;9.70;3.95;;;;;;;33.87;59.56;100659.00;20657994;28;20073;-73
2023/09/09 10:15:17;;;;;;;13.10;4.40;;;;;;;33.34;62.25;100654.31;20662079;28;20415;-72
2023/09/09 10:25:43;;;;;;;12.88;4.40;;;;;;;33.20;65.26;100650.84;20662518;28;20050;-72
2023/09/09 10:36:07;;;;;;;12.13;4.22;;;;;;;33.69;66.94;100656.91;20662679;28;20093;-72
2023/09/09 10:46:37;;;;;;;13.25;4.07;;;;;;;33.70;60.70;100647.69;20647996;28;20046;-73
2023/09/09 10:57:02;;;;;;;12.73;3.70;;;;;;;33.73;58.27;100647.47;20641210;28;20058;-72
2023/09/09 11:07:40;;;;;;;12.53;4.17;;;;;;;33.79;55.25;100653.31;20642030;28;20062;-72
2023/09/09 11:18:03;;;;;;;11.90;4.53;;;;;;;33.49;54.90;100644.84;20649662;28;20060;-72
2023/09/09 11:28:29;;;;;;;12.57;3.80;;;;;;;33.88;53.18;100637.97;20640394;28;20049;-72
2023/09/09 11:38:53;;;;;;;;;;;;;;;33.65;53.59;100656.28;20645133;28;20050;-73
2023/09/09 11:49:18;;;;;;;15.10;4.32;;;;;;;33.37;58.73;100659.53;20655596;28;19932;-72
2023/09/09 11:59:45;;;;;;;13.13;4.83;;;;;;;32.90;61.97;100655.97;20641992;28;20473;-72
2023/09/09 12:10:14;;;;;;;13.73;4.22;;;;;;;32.90;61.85;100641.44;20668539;28;20050;-72
2023/09/09 12:20:37;;;;;;;13.68;4.20;;;;;;;32.84;60.54;100635.44;20654295;28;20054;-72
2023/09/09 12:31:01;;;;;;;10.90;4.50;;;;;;;32.59;62.56;100648.41;20654309;28;20058;-72
2023/09/09 12:41:24;;;;;;;16.13;5.22;;;;;;;32.33;66.68;100653.16;20655289;28;20639;-71
2023/09/09 12:51:50;;;;;;;13.23;4.40;;;;;;;32.30;70.70;100658.84;20655575;28;20058;-72
2023/09/09 13:02:13;;;;;;;10.40;4.00;;;;;;;32.31;71.07;100652.41;20640909;28;20141;-71
2023/09/09 13:12:38;;;;;;;10.88;4.22;;;;;;;32.43;69.47;100649.59;20654822;28;20137;-72
2023/09/09 13:23:01;;;;;;;14.30;4.40;;;;;;;32.22;67.75;100639.47;20662029;28;20057;-72
2023/09/09 13:33:25;;;;;;;12.57;4.70;;;;;;;32.03;66.28;100642.69;20654432;28;20050;-72
2023/09/09 13:43:48;;;;;;;14.40;5.07;;;;;;;32.00;68.70;100632.84;20666558;28;20050;-72
2023/09/09 13:54:15;;;;;;;16.23;4.95;;;;;;;31.99;74.01;100636.56;20666586;28;20045;-72
2023/09/09 14:04:38;;;;;;;15.82;5.25;;;;;;;31.88;75.79;100619.25;20665193;28;20380;-72
2023/09/09 14:15:02;;;;;;;15.35;5.28;;;;;;;31.62;78.88;100619.34;20650164;28;20057;-72
2023/09/09 14:25:25;;;;;;;19.52;5.95;;;;;;;31.66;79.12;100615.41;20650184;28;20097;-72
2023/09/09 14:35:54;;;;;;;18.65;5.93;;;;;;;31.12;85.16;100612.09;20663208;28;20136;-72
2023/09/09 14:46:18;;;;;;;20.83;6.13;;;;;;;30.74;86.80;100601.19;20662030;28;20137;-72
2023/09/09 14:56:42;;;;;;;15.73;5.78;;;;;;;30.60;90.05;100612.16;20650215;28;20049;-71
2023/09/09 15:07:06;;;;;;;18.33;5.68;;;;;;;30.62;92.39;100620.25;20660720;28;20072;-72
2023/09/09 15:17:31;;;;;;;18.23;5.65;;;;;;;30.44;94.04;100625.97;20659231;28;20062;-72
2023/09/09 15:27:54;;;;;;;21.65;5.47;;;;;;;30.01;96.64;100617.13;20645461;28;20046;-72
2023/09/09 15:38:20;;;;;;;15.70;5.78;;;;;;;29.75;98.10;100628.84;20658050;28;20421;-72
2023/09/09 15:48:43;;;;;;;19.92;6.35;;;;;;;29.38;100.00;100624.06;20657466;28;20120;-72
2023/09/09 15:59:08;;;;;;;19.45;6.05;;;;;;;29.14;100.00;100631.94;20644618;28;20065;-72
2023/09/09 16:09:31;;;;;;;16.17;6.40;;;;;;;28.84;100.00;100637.44;20655641;28;20062;-72
2023/09/09 16:19:57;;;;;;;18.63;6.45;;;;;;;28.65;100.00;100644.94;20655633;28;20134;-72
2023/09/09 16:30:19;;;;;;;18.17;6.35;;;;;;;28.42;100.00;100644.50;20641768;28;20113;-71
2023/09/09 16:40:45;;;;;;;18.17;6.40;;;;;;;28.22;100.00;100642.13;20656077;28;20081;-72
2023/09/09 16:51:08;;;;;;;24.45;6.70;;;;;;;28.06;100.00;100652.97;20640573;28;20085;-71
2023/09/09 17:01:34;;;;;;;16.37;6.50;;;;;;;27.92;100.00;100646.59;20669827;28;20049;-73
2023/09/09 17:11:56;;;;;;;22.80;6.75;;;;;;;27.75;100.00;100664.72;20669243;28;20149;-72
2023/09/09 17:22:22;;;;;;;19.38;6.45;;;;;;;27.67;100.00;100668.81;20669443;28;20046;-73
2023/09/09 17:32:46;;;;;;;15.68;6.38;;;;;;;27.56;100.00;100685.72;20684261;28;20039;-72
2023/09/09 17:43:10;;;;;;;17.08;6.10;;;;;;;27.42;100.00;100688.28;20628798;28;20513;-72
2023/09/09 17:53:33;;;;;;;18.75;7.13;;;;;;;27.23;100.00;100682.13;20666235;28;20042;-71
2023/09/09 18:04:00;;;;;;;20.13;6.63;;;;;;;27.09;100.00;100691.00;20651368;28;20081;-72
2023/09/09 18:14:23;;;;;;;19.95;6.18;;;;;;;27.04;100.00;100714.78;20664610;28;20047;-71
2023/09/09 18:24:49;;;;;;;19.50;6.70;;;;;;;26.96;100.00;100723.31;20650241;28;20145;-72
2023/09/09 18:35:12;;;;;;;18.15;6.05;;;;;;;26.86;100.00;100727.41;20650057;28;20043;-72
2023/09/09 18:45:36;;;;;;;20.38;7.20;;;;;;;26.73;100.00;100736.25;20648906;28;20148;-72
2023/09/09 18:55:59;;;;;;;24.77;10.45;;;;;;;26.65;100.00;100738.50;20662239;28;20062;-71
2023/09/09 19:06:23;;;;;;;18.77;5.82;;;;;;;26.58;100.00;100740.66;20660238;28;20077;-72
2023/09/09 19:16:46;;;;;;;18.30;6.80;;;;;;;26.47;100.00;100735.75;20658729;28;20649;-72
2023/09/09 19:27:11;;;;;;;17.25;8.18;;;;;;;26.42;100.00;100736.94;20658363;28;20396;-72
2023/09/09 19:37:33;;;;;;;17.13;7.00;;;;;;;26.30;100.00;100743.88;20658980;28;20057;-71
2023/09/09 19:47:58;;;;;;;22.83;8.23;;;;;;;26.28;100.00;100753.88;20657272;28;20098;-72
2023/09/09 19:58:21;;;;;;;16.00;5.65;;;;;;;26.22;100.00;100747.84;20638824;28;20156;-72
2023/09/09 20:08:46;;;;;;;16.08;5.70;;;;;;;26.15;100.00;100760.81;20664964;28;20090;-71
2023/09/09 20:19:09;;;;;;;17.60;6.22;;;;;;;26.02;100.00;100770.47;20650912;28;20060;-71
2023/09/09 20:29:34;;;;;;;17.85;5.50;;;;;;;25.89;100.00;100769.31;20653765;28;20057;-72
2023/09/09 20:39:57;;;;;;;19.40;6.43;;;;;;;25.75;100.00;100764.53;20666789;28;20074;-72
2023/09/09 20:50:24;;;;;;;15.77;6.75;;;;;;;25.67;100.00;100750.50;20657593;28;20058;-72
2023/09/09 21:00:47;;;;;;;21.92;6.10;;;;;;;25.67;100.00;100754.09;20630979;28;20124;-72
2023/09/09 21:11:12;;;;;;;17.52;5.75;;;;;;;25.63;100.00;100735.38;20576617;28;20078;-71
2023/09/09 21:21:34;;;;;;;18.00;6.07;;;;;;;25.63;100.00;100735.38;20580091;28;20514;-72
2023/09/09 21:32:00;;;;;;;16.02;5.88;;;;;;;25.60;100.00;100744.50;20639163;28;20057;-72
2023/09/09 21:42:23;;;;;;;19.05;5.47;;;;;;;25.57;100.00;100741.03;20662150;28;20450;-72
2023/09/09 21:52:49;;;;;;;20.55;5.72;;;;;;;25.49;100.00;100749.50;20660854;28;20046;-72
2023/09/09 22:03:13;;;;;;;14.07;4.75;;;;;;;25.42;100.00;100737.22;20647411;28;20105;-72
2023/09/09 22:13:37;;;;;;;22.25;6.15;;;;;;;25.30;100.00;100735.06;20660396;28;20529;-71
2023/09/09 22:24:00;;;;;;;15.70;4.75;;;;;;;25.24;100.00;100725.44;20658812;28;20054;-71
2023/09/09 22:34:25;;;;;;;22.70;5.85;;;;;;;25.23;100.00;100704.75;20588322;28;20050;-72
2023/09/09 22:44:48;;;;;;;16.73;5.25;;;;;;;25.16;100.00;100694.28;20657315;28;20055;-72
2023/09/09 22:55:12;;;;;;;16.70;5.03;;;;;;;25.07;100.00;100683.91;20656679;28;20403;-72
2023/09/09 23:05:35;;;;;;;17.13;5.68;;;;;;;24.94;100.00;100689.00;20654889;28;20077;-72
2023/09/09 23:15:59;;;;;;;15.82;5.47;;;;;;;24.87;100.00;100671.28;20640912;28;20050;-71
2023/09/09 23:26:23;;;;;;;14.00;5.65;;;;;;;24.69;100.00;100653.16;20653192;28;20066;-72
2023/09/09 23:36:48;;;;;;;23.50;6.68;;;;;;;24.65;100.00;100641.63;20653437;28;20050;-72
2023/09/09 23:47:11;;;;;;;14.38;5.32;;;;;;;24.61;100.00;100632.78;20666320;28;20463;-72
2023/09/09 23:57:36;;;;;;;14.52;5.20;;;;;;;24.53;100.00;100637.66;20651989;28;20070;-73
